createdAt,value
2018-08-16T00:02:06.258Z,12.60
2018-08-16T00:04:38.481Z,13.05
2018-08-16T00:07:06.739Z,13.43
2018-08-16T00:09:35.156Z,13.58
2018-08-16T00:12:03.376Z,14.73
2018-08-16T00:14:35.200Z,14.43
2018-08-16T00:17:03.712Z,13.27
2018-08-16T00:19:31.891Z,11.68
2018-08-16T00:22:00.098Z,14.20
2018-08-16T00:24:28.732Z,14.70
2018-08-16T00:26:57.077Z,14.47
2018-08-16T00:29:25.333Z,13.67
2018-08-16T00:31:53.593Z,14.90
2018-08-16T00:34:21.844Z,12.57
2018-08-16T00:36:50.689Z,14.20
2018-08-16T00:39:18.893Z,14.83
2018-08-16T00:41:47.580Z,14.05
2018-08-16T00:44:15.808Z,13.90
2018-08-16T00:46:47.057Z,14.28
2018-08-16T00:49:15.313Z,16.70
2018-08-16T00:51:43.555Z,13.30
2018-08-16T00:54:11.767Z,13.47
2018-08-16T00:56:40.016Z,13.93
2018-08-16T00:59:08.272Z,12.73
2018-08-16T01:01:41.686Z,14.60
2018-08-16T01:04:09.875Z,12.60
2018-08-16T01:06:38.104Z,13.20
2018-08-16T01:09:08.126Z,13.15
2018-08-16T01:11:36.308Z,14.47
2018-08-16T01:14:05.418Z,15.23
2018-08-16T01:16:36.575Z,12.85
2018-08-16T01:19:04.779Z,15.07
2018-08-16T01:21:33.131Z,14.13
2018-08-16T01:24:01.354Z,15.20
2018-08-16T01:26:29.566Z,15.10
2018-08-16T01:28:58.090Z,13.80
2018-08-16T01:31:29.308Z,14.93
2018-08-16T01:33:57.558Z,14.10
2018-08-16T01:36:25.740Z,12.07
2018-08-16T01:38:54.017Z,13.93
2018-08-16T01:41:22.998Z,12.55
2018-08-16T01:43:51.188Z,12.07
2018-08-16T01:46:22.237Z,13.07
2018-08-16T01:48:50.466Z,13.17
2018-08-16T01:51:18.673Z,11.47
2018-08-16T01:53:46.868Z,12.70
2018-08-16T01:56:15.131Z,11.77
2018-08-16T01:58:43.324Z,12.30
2018-08-16T02:01:14.966Z,12.13
2018-08-16T02:03:43.409Z,12.20
2018-08-16T02:06:11.839Z,12.80
2018-08-16T02:08:40.062Z,13.40
2018-08-16T02:11:08.291Z,13.38
2018-08-16T02:13:36.542Z,12.63
2018-08-16T02:16:04.840Z,11.43
2018-08-16T02:18:33.038Z,12.07
2018-08-16T02:21:01.288Z,13.07
2018-08-16T02:23:29.493Z,13.87
2018-08-16T02:25:57.707Z,12.20
2018-08-16T02:28:25.944Z,12.23
2018-08-16T02:30:54.171Z,12.50
2018-08-16T02:33:22.386Z,12.57
2018-08-16T02:35:50.618Z,11.63
2018-08-16T02:38:18.805Z,12.10
2018-08-16T02:40:47.000Z,10.93
2018-08-16T02:43:15.187Z,11.87
2018-08-16T02:45:43.388Z,11.43
2018-08-16T02:48:11.599Z,9.30
2018-08-16T02:50:39.832Z,10.10
2018-08-16T02:53:08.523Z,10.10
2018-08-16T02:55:36.920Z,11.00
2018-08-16T02:58:05.199Z,9.67
2018-08-16T03:00:33.383Z,10.30
2018-08-16T03:03:05.870Z,9.73
2018-08-16T03:05:34.080Z,10.27
2018-08-16T03:08:02.299Z,10.27
2018-08-16T03:10:31.412Z,10.87
2018-08-16T03:12:59.636Z,9.73
2018-08-16T03:15:27.852Z,10.98
2018-08-16T03:17:58.883Z,9.73
2018-08-16T03:20:27.064Z,9.55
2018-08-16T03:22:55.458Z,9.40
2018-08-16T03:25:23.648Z,9.90
2018-08-16T03:27:51.837Z,8.85
2018-08-16T03:30:20.149Z,9.70
2018-08-16T03:32:52.757Z,10.40
2018-08-16T03:35:21.929Z,10.08
2018-08-16T03:37:50.076Z,9.55
2018-08-16T03:40:18.508Z,10.03
2018-08-16T03:42:46.723Z,10.03
2018-08-16T03:45:14.909Z,8.03
2018-08-16T03:47:43.136Z,9.10
2018-08-16T03:50:11.347Z,10.15
2018-08-16T03:52:39.552Z,8.27
2018-08-16T03:55:07.864Z,10.35
2018-08-16T03:57:36.084Z,10.00
2018-08-16T04:00:05.578Z,10.25
2018-08-16T04:02:33.794Z,11.53
2018-08-16T04:05:02.008Z,11.00
2018-08-16T04:07:30.733Z,9.93
2018-08-16T04:09:58.955Z,10.13
2018-08-16T04:12:27.220Z,9.90
2018-08-16T04:14:55.672Z,10.25
2018-08-16T04:17:31.452Z,8.80
2018-08-16T04:19:59.627Z,9.17
2018-08-16T04:22:28.011Z,9.20
2018-08-16T04:24:56.483Z,9.77
2018-08-16T04:27:25.016Z,9.97
2018-08-16T04:29:53.216Z,9.73
2018-08-16T04:32:21.457Z,8.63
2018-08-16T04:34:49.769Z,8.80
2018-08-16T04:37:18.014Z,9.17
2018-08-16T04:39:46.325Z,10.10
2018-08-16T04:42:14.519Z,9.77
2018-08-16T04:44:43.049Z,10.40
2018-08-16T04:47:11.276Z,10.30
2018-08-16T04:49:39.548Z,9.60
2018-08-16T04:52:11.333Z,10.90
2018-08-16T04:54:39.639Z,8.90
2018-08-16T04:57:07.934Z,8.63
2018-08-16T04:59:36.135Z,10.20
2018-08-16T05:02:04.432Z,9.60
2018-08-16T05:04:32.627Z,8.80
2018-08-16T05:07:11.260Z,9.23
2018-08-16T05:09:39.453Z,9.43
2018-08-16T05:12:07.683Z,8.63
2018-08-16T05:14:36.163Z,8.77
2018-08-16T05:17:04.495Z,8.33
2018-08-16T05:19:44.279Z,9.18
2018-08-16T05:22:12.516Z,7.73
2018-08-16T05:24:40.704Z,8.90
2018-08-16T05:27:15.831Z,7.30
2018-08-16T05:29:44.612Z,7.83
2018-08-16T05:32:12.829Z,7.77
2018-08-16T05:34:41.080Z,8.17
2018-08-16T05:37:09.360Z,7.40
2018-08-16T05:39:38.097Z,8.15
2018-08-16T05:42:06.588Z,8.60
2018-08-16T05:44:34.782Z,8.53
2018-08-16T05:47:03.915Z,7.83
2018-08-16T05:49:32.150Z,7.67
2018-08-16T05:52:00.375Z,9.17
2018-08-16T05:54:28.796Z,8.15
2018-08-16T05:56:56.987Z,8.10
2018-08-16T05:59:25.305Z,8.85
2018-08-16T06:01:53.479Z,9.50
2018-08-16T06:04:22.129Z,8.90
2018-08-16T06:06:54.529Z,9.10
2018-08-16T06:09:22.812Z,9.63
2018-08-16T06:11:52.011Z,10.03
2018-08-16T06:14:20.221Z,10.37
2018-08-16T06:16:48.525Z,10.68
2018-08-16T06:19:16.740Z,11.23
2018-08-16T06:21:48.296Z,10.98
2018-08-16T06:24:16.543Z,10.30
2018-08-16T06:26:44.732Z,11.53
2018-08-16T06:29:12.975Z,10.43
2018-08-16T06:31:41.201Z,11.10
2018-08-16T06:34:09.447Z,11.53
2018-08-16T06:36:38.590Z,11.40
2018-08-16T06:39:09.021Z,11.40
2018-08-16T06:41:37.881Z,10.87
2018-08-16T06:44:06.167Z,10.37
2018-08-16T06:46:34.421Z,11.77
2018-08-16T06:49:02.631Z,10.30
2018-08-16T06:51:31.023Z,12.20
2018-08-16T06:53:59.427Z,9.95
2018-08-16T06:56:28.394Z,11.10
2018-08-16T06:58:56.596Z,11.10
2018-08-16T07:01:24.820Z,11.57
2018-08-16T07:03:53.223Z,11.30
2018-08-16T07:06:25.263Z,12.30
2018-08-16T07:08:53.709Z,11.90
2018-08-16T07:11:21.945Z,12.93
2018-08-16T07:13:50.195Z,10.90
2018-08-16T07:16:18.559Z,9.70
2018-08-16T07:18:46.848Z,10.07
2018-08-16T07:21:15.173Z,10.50
2018-08-16T07:23:47.100Z,10.10
2018-08-16T07:26:15.327Z,13.90
2018-08-16T07:28:43.559Z,14.60
2018-08-16T07:31:11.807Z,10.60
2018-08-16T07:33:40.050Z,10.90
2018-08-16T07:36:08.262Z,12.00
2018-08-16T07:38:39.808Z,9.83
2018-08-16T07:41:08.450Z,9.50
2018-08-16T07:43:36.756Z,10.37
2018-08-16T07:46:04.994Z,10.55
2018-08-16T07:48:33.179Z,9.08
2018-08-16T07:51:01.470Z,10.25
2018-08-16T07:53:32.949Z,8.80
2018-08-16T07:56:01.181Z,9.40
2018-08-16T07:58:29.386Z,10.07
2018-08-16T08:00:58.528Z,9.10
2018-08-16T08:03:26.775Z,9.83
2018-08-16T08:05:55.021Z,9.33
2018-08-16T08:08:23.264Z,9.73
2018-08-16T08:10:51.422Z,8.37
2018-08-16T08:13:19.607Z,9.90
2018-08-16T08:15:47.804Z,8.40
2018-08-16T08:18:16.940Z,7.87
2018-08-16T08:20:45.078Z,9.13
2018-08-16T08:23:17.285Z,8.33
2018-08-16T08:25:45.480Z,6.60
2018-08-16T08:28:13.698Z,7.77
2018-08-16T08:30:41.893Z,7.20
2018-08-16T08:33:10.127Z,6.90
2018-08-16T08:35:38.381Z,7.83
2018-08-16T08:38:12.320Z,6.50
2018-08-16T08:40:40.529Z,6.80
2018-08-16T08:43:08.716Z,6.30
2018-08-16T08:45:36.925Z,5.60
2018-08-16T08:48:05.283Z,5.10
2018-08-16T08:50:33.488Z,7.20
2018-08-16T08:53:16.118Z,5.63
2018-08-16T08:55:55.725Z,5.50
2018-08-16T08:58:39.601Z,5.50
2018-08-16T09:01:07.824Z,6.17
2018-08-16T09:03:36.056Z,4.57
2018-08-16T09:06:04.596Z,6.20
2018-08-16T09:08:49.572Z,6.60
2018-08-16T09:11:29.169Z,5.97
2018-08-16T09:14:08.856Z,5.60
2018-08-16T09:16:41.003Z,5.70
2018-08-16T09:19:10.937Z,5.27
2018-08-16T09:21:39.119Z,5.00
2018-08-16T09:24:07.388Z,5.53
2018-08-16T09:26:40.506Z,5.10
2018-08-16T09:29:22.743Z,4.50
2018-08-16T09:34:08.651Z,4.05
2018-08-16T09:36:37.722Z,4.93
2018-08-16T09:39:10.427Z,4.53
2018-08-16T09:41:38.935Z,4.37
2018-08-16T09:44:07.224Z,3.52
2018-08-16T09:46:57.854Z,3.92
2018-08-16T09:49:27.423Z,3.43
2018-08-16T09:51:55.860Z,4.30
2018-08-16T09:54:24.106Z,3.47
2018-08-16T09:56:52.792Z,2.37
2018-08-16T09:59:21.796Z,3.85
2018-08-16T10:01:50.173Z,4.07
2018-08-16T10:04:18.343Z,3.25
2018-08-16T10:06:46.822Z,3.30
2018-08-16T10:09:17.035Z,3.50
2018-08-16T10:11:45.937Z,4.50
2018-08-16T10:14:14.421Z,3.65
2018-08-16T10:16:42.624Z,3.83
2018-08-16T10:19:11.707Z,3.23
2018-08-16T10:21:39.948Z,3.60
2018-08-16T10:24:08.175Z,3.37
2018-08-16T10:26:39.933Z,3.00
2018-08-16T10:29:08.653Z,3.02
2018-08-16T10:31:36.859Z,3.00
2018-08-16T10:34:05.089Z,3.07
2018-08-16T10:36:33.375Z,3.43
2018-08-16T10:39:01.622Z,2.90
2018-08-16T10:41:30.268Z,3.37
2018-08-16T10:43:58.447Z,3.00
2018-08-16T10:46:26.654Z,2.87
2018-08-16T10:48:54.846Z,3.00
2018-08-16T10:51:23.056Z,2.93
2018-08-16T10:53:51.232Z,3.43
2018-08-16T10:56:19.456Z,2.83
2018-08-16T10:58:47.706Z,2.87
2018-08-16T11:01:16.081Z,3.13
2018-08-16T11:03:44.182Z,2.63
2018-08-16T11:06:12.424Z,2.77
2018-08-16T11:08:40.620Z,3.30
2018-08-16T11:11:13.212Z,2.67
2018-08-16T11:13:41.415Z,2.67
2018-08-16T11:16:09.604Z,3.10
2018-08-16T11:18:37.796Z,3.62
2018-08-16T11:21:06.168Z,2.93
2018-08-16T11:23:34.463Z,2.95
2018-08-16T11:26:02.648Z,3.77
2018-08-16T11:28:35.139Z,3.58
2018-08-16T11:31:03.324Z,2.67
2018-08-16T11:33:31.591Z,3.33
2018-08-16T11:36:00.692Z,3.02
2018-08-16T11:38:28.867Z,3.22
2018-08-16T11:41:00.928Z,2.40
2018-08-16T11:43:29.124Z,3.33
2018-08-16T11:45:57.301Z,2.50
2018-08-16T11:48:25.722Z,3.15
2018-08-16T11:50:53.927Z,3.20
2018-08-16T11:53:22.116Z,3.15
2018-08-16T11:55:54.867Z,2.90
2018-08-16T11:58:23.047Z,2.77
2018-08-16T12:00:51.242Z,2.80
2018-08-16T12:03:20.988Z,2.40
2018-08-16T12:05:49.263Z,3.40
2018-08-16T12:08:17.407Z,2.70
2018-08-16T12:10:45.821Z,3.65
2018-08-16T12:13:14.007Z,2.30
2018-08-16T12:15:42.184Z,2.80
2018-08-16T12:18:10.479Z,3.33
2018-08-16T12:20:38.672Z,2.83
2018-08-16T12:23:07.115Z,2.62
2018-08-16T12:25:35.336Z,3.23
2018-08-16T12:28:08.033Z,2.50
2018-08-16T12:30:36.233Z,2.90
2018-08-16T12:33:04.448Z,2.87
2018-08-16T12:35:32.639Z,2.97
2018-08-16T12:38:00.868Z,2.20
2018-08-16T12:40:29.082Z,3.50
2018-08-16T12:43:01.976Z,2.63
2018-08-16T12:45:31.100Z,2.65
2018-08-16T12:47:59.334Z,2.80
2018-08-16T12:50:27.660Z,2.43
2018-08-16T12:52:56.226Z,2.97
2018-08-16T12:55:24.448Z,2.97
2018-08-16T12:57:52.737Z,2.53
2018-08-16T13:00:20.952Z,2.53
2018-08-16T13:02:49.439Z,2.70
2018-08-16T13:05:17.849Z,2.73
2018-08-16T13:07:46.065Z,2.95
2018-08-16T13:10:14.573Z,3.40
2018-08-16T13:12:47.048Z,2.53
2018-08-16T13:15:16.000Z,3.20
2018-08-16T13:17:44.250Z,2.30
2018-08-16T13:20:12.592Z,2.37
2018-08-16T13:22:40.968Z,2.90
2018-08-16T13:25:09.542Z,3.00
2018-08-16T13:27:37.774Z,2.50
2018-08-16T13:30:06.464Z,3.30
2018-08-16T13:32:35.612Z,2.75
2018-08-16T13:35:04.039Z,2.40
2018-08-16T13:37:32.239Z,2.87
2018-08-16T13:40:00.438Z,2.87
2018-08-16T13:42:28.749Z,2.90
2018-08-16T13:44:59.832Z,2.40
2018-08-16T13:47:28.028Z,2.83
2018-08-16T13:49:56.280Z,3.00
2018-08-16T13:52:25.089Z,2.27
2018-08-16T13:54:53.311Z,2.07
2018-08-16T13:57:21.519Z,2.92
2018-08-16T13:59:49.967Z,2.62
2018-08-16T14:02:18.134Z,2.60
2018-08-16T14:04:46.334Z,2.47
2018-08-16T14:07:14.514Z,2.60
2018-08-16T14:09:42.722Z,2.33
2018-08-16T14:12:10.901Z,2.70
2018-08-16T14:14:39.516Z,2.72
2018-08-16T14:17:07.698Z,2.60
2018-08-16T14:19:35.940Z,3.17
2018-08-16T14:22:04.212Z,2.30
2018-08-16T14:24:32.380Z,2.20
2018-08-16T14:27:00.610Z,2.37
2018-08-16T14:29:29.828Z,2.72
2018-08-16T14:31:59.104Z,3.40
2018-08-16T14:34:27.289Z,3.27
2018-08-16T14:36:55.532Z,2.33
2018-08-16T14:39:24.667Z,3.00
2018-08-16T14:41:53.774Z,2.22
2018-08-16T14:44:25.159Z,2.10
2018-08-16T14:46:53.325Z,2.35
2018-08-16T14:49:21.532Z,3.45
2018-08-16T14:51:49.745Z,2.52
2018-08-16T14:54:18.821Z,2.45
2018-08-16T14:56:47.044Z,2.40
2018-08-16T14:59:18.161Z,2.33
2018-08-16T15:01:46.375Z,2.80
2018-08-16T15:04:14.532Z,3.23
2018-08-16T15:06:42.745Z,2.50
2018-08-16T15:09:11.871Z,2.10
2018-08-16T15:11:41.268Z,2.02
2018-08-16T15:14:13.959Z,2.50
2018-08-16T15:16:42.136Z,2.33
2018-08-16T15:19:10.363Z,2.12
2018-08-16T15:21:38.551Z,2.67
2018-08-16T15:24:06.755Z,2.27
2018-08-16T15:26:34.946Z,2.13
2018-08-16T15:29:03.132Z,2.23
2018-08-16T15:31:31.320Z,2.50
2018-08-16T15:33:59.564Z,2.77
2018-08-16T15:36:27.740Z,1.77
2018-08-16T15:38:55.988Z,2.00
2018-08-16T15:41:24.183Z,2.63
2018-08-16T15:43:52.413Z,3.30
2018-08-16T15:46:20.568Z,2.50
2018-08-16T15:48:48.763Z,2.13
2018-08-16T15:51:17.047Z,2.95
2018-08-16T15:53:45.272Z,2.40
2018-08-16T15:56:13.459Z,2.22
2018-08-16T15:58:41.641Z,2.50
2018-08-16T16:01:09.812Z,2.47
2018-08-16T16:03:38.012Z,2.50
2018-08-16T16:06:06.635Z,2.50
2018-08-16T16:08:34.843Z,2.40
2018-08-16T16:11:03.051Z,3.20
2018-08-16T16:13:31.218Z,2.83
2018-08-16T16:16:02.499Z,2.53
2018-08-16T16:18:34.729Z,3.10
2018-08-16T16:21:03.557Z,2.30
2018-08-16T16:23:31.771Z,2.20
2018-08-16T16:26:00.350Z,2.37
2018-08-16T16:28:28.591Z,3.13
2018-08-16T16:30:56.819Z,2.63
2018-08-16T16:33:24.986Z,2.43
2018-08-16T16:35:53.196Z,2.67
2018-08-16T16:38:21.447Z,2.65
2018-08-16T16:40:50.155Z,2.37
2018-08-16T16:43:18.396Z,2.43
2018-08-16T16:45:46.571Z,2.10
2018-08-16T16:48:22.796Z,2.40
2018-08-16T16:50:51.029Z,1.90
2018-08-16T16:53:19.244Z,2.37
2018-08-16T16:55:47.476Z,2.50
2018-08-16T16:58:15.736Z,2.37
2018-08-16T17:00:43.972Z,2.40
2018-08-16T17:03:13.085Z,2.00
2018-08-16T17:05:41.358Z,2.37
2018-08-16T17:08:09.563Z,1.90
2018-08-16T17:10:38.445Z,2.37
2018-08-16T17:13:06.646Z,2.53
2018-08-16T17:15:35.211Z,2.77
2018-08-16T17:18:03.412Z,2.40
2018-08-16T17:20:31.616Z,2.10
2018-08-16T17:22:59.822Z,2.63
2018-08-16T17:25:28.201Z,2.02
2018-08-16T17:27:56.432Z,2.03
2018-08-16T17:30:24.684Z,2.70
2018-08-16T17:32:52.897Z,2.10
2018-08-16T17:35:21.097Z,2.50
2018-08-16T17:37:49.360Z,2.30
2018-08-16T17:40:17.607Z,2.00
2018-08-16T17:42:45.883Z,2.60
2018-08-16T17:45:14.103Z,2.40
2018-08-16T17:47:54.740Z,2.73
2018-08-16T17:50:22.980Z,3.20
2018-08-16T17:52:51.211Z,3.58
2018-08-16T17:55:19.438Z,2.30
2018-08-16T17:57:48.572Z,2.98
2018-08-16T18:00:16.779Z,2.47
2018-08-16T18:02:51.052Z,2.93
2018-08-16T18:05:19.457Z,3.00
2018-08-16T18:07:47.695Z,3.25
2018-08-16T18:10:15.896Z,3.13
2018-08-16T18:12:44.135Z,2.67
2018-08-16T18:15:12.630Z,2.73
2018-08-16T18:17:40.839Z,2.37
2018-08-16T18:20:09.040Z,3.25
2018-08-16T18:22:37.701Z,2.50
2018-08-16T18:25:06.254Z,3.10
2018-08-16T18:27:34.520Z,3.63
2018-08-16T18:30:02.759Z,3.80
2018-08-16T18:32:38.711Z,4.03
2018-08-16T18:35:06.866Z,4.00
2018-08-16T18:37:35.084Z,3.77
2018-08-16T18:40:03.527Z,4.57
2018-08-16T18:42:31.782Z,2.90
2018-08-16T18:44:59.957Z,3.05
2018-08-16T18:47:28.279Z,3.60
2018-08-16T18:49:56.525Z,3.45
2018-08-16T18:52:24.694Z,2.50
2018-08-16T18:54:52.907Z,3.33
2018-08-16T18:57:21.103Z,3.97
2018-08-16T18:59:49.321Z,4.20
2018-08-16T19:02:18.188Z,3.50
2018-08-16T19:04:46.433Z,3.67
2018-08-16T19:07:14.738Z,3.50
2018-08-16T19:09:44.301Z,3.93
2018-08-16T19:12:12.507Z,3.20
2018-08-16T19:14:40.716Z,4.45
2018-08-16T19:17:08.940Z,3.70
2018-08-16T19:19:37.128Z,3.72
2018-08-16T19:22:05.369Z,3.60
2018-08-16T19:24:33.567Z,3.55
2018-08-16T19:27:08.407Z,3.43
2018-08-16T19:29:36.635Z,3.80
2018-08-16T19:32:04.808Z,4.65
2018-08-16T19:34:37.152Z,3.52
2018-08-16T19:37:05.412Z,3.57
2018-08-16T19:39:34.031Z,3.30
2018-08-16T19:42:02.292Z,3.40
2018-08-16T19:44:30.500Z,3.40
2018-08-16T19:46:59.136Z,3.20
2018-08-16T19:49:27.331Z,3.47
2018-08-16T19:51:55.571Z,3.80
2018-08-16T19:54:23.902Z,2.97
2018-08-16T19:56:52.131Z,3.25
2018-08-16T19:59:23.347Z,3.43
2018-08-16T20:01:51.575Z,3.50
2018-08-16T20:04:19.764Z,3.22
2018-08-16T20:11:46.040Z,3.40
2018-08-16T20:14:14.238Z,3.30
2018-08-16T20:16:42.448Z,3.33
2018-08-16T20:19:13.836Z,3.90
2018-08-16T20:21:41.958Z,3.80
2018-08-16T20:24:10.277Z,4.10
2018-08-16T20:26:39.003Z,3.55
2018-08-16T20:29:07.280Z,3.87
2018-08-16T20:31:35.502Z,3.13
2018-08-16T20:34:03.744Z,3.70
2018-08-16T20:36:31.974Z,4.40
2018-08-16T20:39:00.229Z,3.83
2018-08-16T20:41:28.430Z,4.00
2018-08-16T20:43:56.649Z,4.07
2018-08-16T20:46:24.864Z,3.45
2018-08-16T20:48:53.591Z,3.35
2018-08-16T20:51:21.776Z,3.50
2018-08-16T20:53:49.971Z,3.33
2018-08-16T20:56:18.180Z,4.08
2018-08-16T20:58:46.551Z,4.37
2018-08-16T21:01:14.804Z,3.20
2018-08-16T21:03:43.104Z,4.37
2018-08-16T21:06:11.295Z,3.87
2018-08-16T21:08:39.538Z,3.97
2018-08-16T21:11:07.838Z,5.30
2018-08-16T21:13:36.054Z,3.23
2018-08-16T21:16:04.268Z,3.70
2018-08-16T21:18:32.465Z,3.73
2018-08-16T21:21:00.670Z,3.70
2018-08-16T21:23:28.898Z,3.57
2018-08-16T21:25:57.468Z,3.67
2018-08-16T21:28:25.688Z,3.87
2018-08-16T21:30:53.921Z,4.60
2018-08-16T21:33:22.239Z,4.10
2018-08-16T21:35:54.424Z,4.37
2018-08-16T21:40:56.080Z,3.40
2018-08-16T21:43:24.285Z,4.00
2018-08-16T21:45:52.711Z,4.03
2018-08-16T21:48:20.933Z,3.70
2018-08-16T21:50:49.119Z,4.00
2018-08-16T21:53:17.356Z,3.93
2018-08-16T21:55:45.550Z,3.72
2018-08-16T21:58:13.744Z,3.70
2018-08-16T22:00:53.264Z,4.20
2018-08-16T22:03:23.550Z,3.80
2018-08-16T22:06:05.106Z,3.90
2018-08-16T22:08:42.569Z,3.97
2018-08-16T22:11:11.147Z,3.43
2018-08-16T22:13:39.693Z,4.00
2018-08-16T22:16:07.922Z,4.30
2018-08-16T22:18:36.372Z,4.30
2018-08-16T22:21:04.601Z,3.67
2018-08-16T22:23:32.811Z,3.90
2018-08-16T22:26:01.061Z,3.83
2018-08-16T22:28:29.207Z,4.37
2018-08-16T22:30:57.881Z,4.00
2018-08-16T22:33:27.004Z,3.90
2018-08-16T22:35:55.214Z,3.90
2018-08-16T22:38:23.399Z,4.33
2018-08-16T22:40:51.912Z,3.50
2018-08-16T22:43:20.130Z,4.00
2018-08-16T22:45:48.352Z,4.53
2018-08-16T22:48:16.581Z,4.47
2018-08-16T22:50:44.819Z,4.40
2018-08-16T22:53:20.550Z,4.12
2018-08-16T22:55:48.763Z,4.00
2018-08-16T22:58:17.383Z,4.03
2018-08-16T23:00:45.587Z,4.10
2018-08-16T23:03:13.759Z,4.47
2018-08-16T23:05:42.389Z,5.65
2018-08-16T23:08:13.831Z,4.13
2018-08-16T23:10:42.927Z,4.10
2018-08-16T23:13:11.149Z,4.37
2018-08-16T23:15:39.337Z,4.30
2018-08-16T23:18:07.588Z,4.43
2018-08-16T23:20:35.784Z,4.10
2018-08-16T23:23:06.864Z,4.07
2018-08-16T23:25:35.047Z,4.30
2018-08-16T23:28:03.268Z,5.58
2018-08-16T23:30:31.497Z,4.58
2018-08-16T23:32:59.620Z,5.40
2018-08-16T23:35:27.819Z,4.42
2018-08-16T23:37:55.999Z,4.60
2018-08-16T23:40:24.227Z,4.70
2018-08-16T23:42:52.892Z,4.83
2018-08-16T23:45:22.000Z,4.70
2018-08-16T23:48:01.676Z,6.10
2018-08-16T23:50:29.859Z,4.70
2018-08-16T23:53:02.871Z,4.90
2018-08-16T23:55:31.075Z,4.33
2018-08-16T23:57:59.258Z,5.10
